sensor_id;sensor_type;location;lat;lon;timestamp;P1;durP1;ratioP1;P2;durP2;ratioP2
56307;SDS011;42217;50.422;7.210;2022-11-15T00:00:27;7.93;;;6.15;;
56307;SDS011;42217;50.422;7.210;2022-11-15T00:02:53;11.23;;;6.37;;
56307;SDS011;42217;50.422;7.210;2022-11-15T00:05:19;8.55;;;6.95;;
56307;SDS011;42217;50.422;7.210;2022-11-15T00:07:45;6.40;;;5.60;;
56307;SDS011;42217;50.422;7.210;2022-11-15T00:10:11;10.70;;;6.43;;
56307;SDS011;42217;50.422;7.210;2022-11-15T00:12:37;8.40;;;6.13;;
56307;SDS011;42217;50.422;7.210;2022-11-15T00:15:03;8.23;;;5.80;;
56307;SDS011;42217;50.422;7.210;2022-11-15T00:17:29;5.90;;;5.10;;
56307;SDS011;42217;50.422;7.210;2022-11-15T00:19:54;5.80;;;5.10;;
56307;SDS011;42217;50.422;7.210;2022-11-15T00:22:20;10.97;;;6.00;;
56307;SDS011;42217;50.422;7.210;2022-11-15T00:24:46;6.23;;;5.27;;
56307;SDS011;42217;50.422;7.210;2022-11-15T00:27:12;7.87;;;5.97;;
56307;SDS011;42217;50.422;7.210;2022-11-15T00:29:37;11.40;;;5.50;;
56307;SDS011;42217;50.422;7.210;2022-11-15T00:32:08;7.27;;;5.50;;
56307;SDS011;42217;50.422;7.210;2022-11-15T00:34:34;6.73;;;5.33;;
56307;SDS011;42217;50.422;7.210;2022-11-15T00:37:00;7.17;;;5.53;;
56307;SDS011;42217;50.422;7.210;2022-11-15T00:39:25;6.55;;;5.30;;
56307;SDS011;42217;50.422;7.210;2022-11-15T00:41:51;5.82;;;4.70;;
56307;SDS011;42217;50.422;7.210;2022-11-15T00:44:17;5.55;;;4.72;;
56307;SDS011;42217;50.422;7.210;2022-11-15T00:46:42;5.60;;;4.32;;
56307;SDS011;42217;50.422;7.210;2022-11-15T00:49:08;6.00;;;4.88;;
56307;SDS011;42217;50.422;7.210;2022-11-15T00:51:34;5.23;;;4.17;;
56307;SDS011;42217;50.422;7.210;2022-11-15T00:53:59;5.63;;;4.30;;
56307;SDS011;42217;50.422;7.210;2022-11-15T00:56:25;4.37;;;3.73;;
56307;SDS011;42217;50.422;7.210;2022-11-15T00:58:51;8.90;;;4.47;;
56307;SDS011;42217;50.422;7.210;2022-11-15T01:01:17;9.00;;;4.77;;
56307;SDS011;42217;50.422;7.210;2022-11-15T01:03:43;6.93;;;4.00;;
56307;SDS011;42217;50.422;7.210;2022-11-15T01:06:09;5.07;;;4.17;;
56307;SDS011;42217;50.422;7.210;2022-11-15T01:08:35;4.03;;;3.57;;
56307;SDS011;42217;50.422;7.210;2022-11-15T01:11:05;4.77;;;4.23;;
56307;SDS011;42217;50.422;7.210;2022-11-15T01:13:34;5.28;;;3.17;;
56307;SDS011;42217;50.422;7.210;2022-11-15T01:16:11;7.15;;;4.05;;
56307;SDS011;42217;50.422;7.210;2022-11-15T01:18:40;6.10;;;3.03;;
56307;SDS011;42217;50.422;7.210;2022-11-15T01:21:10;4.87;;;3.80;;
56307;SDS011;42217;50.422;7.210;2022-11-15T01:23:40;5.43;;;3.80;;
56307;SDS011;42217;50.422;7.210;2022-11-15T01:26:07;4.05;;;3.65;;
56307;SDS011;42217;50.422;7.210;2022-11-15T01:28:36;6.17;;;4.10;;
56307;SDS011;42217;50.422;7.210;2022-11-15T01:31:04;6.60;;;3.80;;
56307;SDS011;42217;50.422;7.210;2022-11-15T01:33:34;4.10;;;3.00;;
56307;SDS011;42217;50.422;7.210;2022-11-15T01:36:05;4.53;;;3.72;;
56307;SDS011;42217;50.422;7.210;2022-11-15T01:38:39;4.00;;;3.60;;
56307;SDS011;42217;50.422;7.210;2022-11-15T01:41:04;5.28;;;3.63;;
56307;SDS011;42217;50.422;7.210;2022-11-15T01:43:34;6.75;;;3.95;;
56307;SDS011;42217;50.422;7.210;2022-11-15T01:46:06;5.47;;;4.83;;
56307;SDS011;42217;50.422;7.210;2022-11-15T01:48:46;4.80;;;3.53;;
56307;SDS011;42217;50.422;7.210;2022-11-15T01:51:13;7.45;;;5.40;;
56307;SDS011;42217;50.422;7.210;2022-11-15T01:53:42;5.72;;;4.28;;
56307;SDS011;42217;50.422;7.210;2022-11-15T01:56:16;8.75;;;4.68;;
56307;SDS011;42217;50.422;7.210;2022-11-15T02:01:12;7.47;;;4.45;;
56307;SDS011;42217;50.422;7.210;2022-11-15T02:03:42;7.55;;;5.63;;
56307;SDS011;42217;50.422;7.210;2022-11-15T02:06:19;7.90;;;5.40;;
56307;SDS011;42217;50.422;7.210;2022-11-15T02:08:46;9.27;;;6.32;;
56307;SDS011;42217;50.422;7.210;2022-11-15T02:11:12;8.27;;;6.60;;
56307;SDS011;42217;50.422;7.210;2022-11-15T02:13:38;10.82;;;6.60;;
56307;SDS011;42217;50.422;7.210;2022-11-15T02:17:07;8.13;;;6.32;;
56307;SDS011;42217;50.422;7.210;2022-11-15T02:28:00;8.07;;;5.90;;
56307;SDS011;42217;50.422;7.210;2022-11-15T02:42:19;7.90;;;5.95;;
56307;SDS011;42217;50.422;7.210;2022-11-15T02:45:08;9.00;;;5.88;;
56307;SDS011;42217;50.422;7.210;2022-11-15T02:47:39;7.72;;;5.43;;
56307;SDS011;42217;50.422;7.210;2022-11-15T02:50:10;9.20;;;5.43;;
56307;SDS011;42217;50.422;7.210;2022-11-15T02:52:37;8.70;;;6.00;;
56307;SDS011;42217;50.422;7.210;2022-11-15T02:55:03;6.97;;;6.00;;
56307;SDS011;42217;50.422;7.210;2022-11-15T03:00:03;10.17;;;5.00;;
56307;SDS011;42217;50.422;7.210;2022-11-15T03:10:51;5.93;;;3.77;;
56307;SDS011;42217;50.422;7.210;2022-11-15T03:13:39;7.43;;;3.58;;
56307;SDS011;42217;50.422;7.210;2022-11-15T03:18:57;6.63;;;3.73;;
56307;SDS011;42217;50.422;7.210;2022-11-15T03:21:34;3.90;;;3.47;;
56307;SDS011;42217;50.422;7.210;2022-11-15T03:24:01;3.27;;;2.97;;
56307;SDS011;42217;50.422;7.210;2022-11-15T03:26:30;5.43;;;3.50;;
56307;SDS011;42217;50.422;7.210;2022-11-15T03:29:01;2.93;;;2.33;;
56307;SDS011;42217;50.422;7.210;2022-11-15T03:31:32;4.20;;;3.43;;
56307;SDS011;42217;50.422;7.210;2022-11-15T03:34:26;2.80;;;2.53;;
56307;SDS011;42217;50.422;7.210;2022-11-15T03:36:56;3.10;;;2.87;;
56307;SDS011;42217;50.422;7.210;2022-11-15T03:39:22;3.50;;;2.50;;
56307;SDS011;42217;50.422;7.210;2022-11-15T03:41:52;3.47;;;2.23;;
56307;SDS011;42217;50.422;7.210;2022-11-15T03:44:42;2.30;;;2.03;;
56307;SDS011;42217;50.422;7.210;2022-11-15T03:47:10;2.77;;;2.20;;
56307;SDS011;42217;50.422;7.210;2022-11-15T03:49:43;1.83;;;1.60;;
56307;SDS011;42217;50.422;7.210;2022-11-15T03:52:11;2.60;;;2.13;;
56307;SDS011;42217;50.422;7.210;2022-11-15T03:54:47;2.20;;;1.47;;
56307;SDS011;42217;50.422;7.210;2022-11-15T03:57:17;2.30;;;1.67;;
56307;SDS011;42217;50.422;7.210;2022-11-15T03:59:43;2.07;;;1.87;;
56307;SDS011;42217;50.422;7.210;2022-11-15T04:02:09;1.80;;;1.70;;
56307;SDS011;42217;50.422;7.210;2022-11-15T04:04:34;2.70;;;2.13;;
56307;SDS011;42217;50.422;7.210;2022-11-15T04:07:00;1.57;;;1.47;;
56307;SDS011;42217;50.422;7.210;2022-11-15T04:09:26;3.43;;;2.30;;
56307;SDS011;42217;50.422;7.210;2022-11-15T04:11:51;6.57;;;2.53;;
56307;SDS011;42217;50.422;7.210;2022-11-15T04:14:17;2.43;;;2.00;;
56307;SDS011;42217;50.422;7.210;2022-11-15T04:16:43;2.93;;;1.53;;
56307;SDS011;42217;50.422;7.210;2022-11-15T04:19:08;2.20;;;2.00;;
56307;SDS011;42217;50.422;7.210;2022-11-15T04:21:52;1.90;;;1.73;;
56307;SDS011;42217;50.422;7.210;2022-11-15T04:24:36;2.80;;;2.30;;
56307;SDS011;42217;50.422;7.210;2022-11-15T04:27:02;3.33;;;1.77;;
56307;SDS011;42217;50.422;7.210;2022-11-15T04:29:28;2.17;;;1.73;;
56307;SDS011;42217;50.422;7.210;2022-11-15T04:32:00;2.35;;;2.17;;
56307;SDS011;42217;50.422;7.210;2022-11-15T04:34:30;3.37;;;2.50;;
56307;SDS011;42217;50.422;7.210;2022-11-15T04:36:56;3.37;;;2.30;;
56307;SDS011;42217;50.422;7.210;2022-11-15T04:39:36;2.93;;;1.60;;
56307;SDS011;42217;50.422;7.210;2022-11-15T04:42:02;2.83;;;2.00;;
56307;SDS011;42217;50.422;7.210;2022-11-15T04:44:28;1.73;;;1.50;;
56307;SDS011;42217;50.422;7.210;2022-11-15T04:46:54;4.63;;;1.83;;
56307;SDS011;42217;50.422;7.210;2022-11-15T04:49:20;2.23;;;2.03;;
56307;SDS011;42217;50.422;7.210;2022-11-15T04:51:46;1.83;;;1.57;;
56307;SDS011;42217;50.422;7.210;2022-11-15T04:54:11;1.33;;;1.23;;
56307;SDS011;42217;50.422;7.210;2022-11-15T04:56:37;2.22;;;1.95;;
56307;SDS011;42217;50.422;7.210;2022-11-15T04:59:03;2.85;;;2.20;;
56307;SDS011;42217;50.422;7.210;2022-11-15T05:01:28;2.20;;;1.90;;
56307;SDS011;42217;50.422;7.210;2022-11-15T05:03:54;4.27;;;1.63;;
56307;SDS011;42217;50.422;7.210;2022-11-15T05:06:38;3.13;;;2.20;;
56307;SDS011;42217;50.422;7.210;2022-11-15T05:09:04;1.43;;;1.33;;
56307;SDS011;42217;50.422;7.210;2022-11-15T05:11:30;1.50;;;1.33;;
56307;SDS011;42217;50.422;7.210;2022-11-15T05:13:55;1.63;;;1.50;;
56307;SDS011;42217;50.422;7.210;2022-11-15T05:16:21;2.13;;;1.95;;
56307;SDS011;42217;50.422;7.210;2022-11-15T05:18:50;2.38;;;2.13;;
56307;SDS011;42217;50.422;7.210;2022-11-15T05:21:16;1.60;;;1.50;;
56307;SDS011;42217;50.422;7.210;2022-11-15T05:23:42;2.53;;;2.33;;
56307;SDS011;42217;50.422;7.210;2022-11-15T05:26:08;1.60;;;1.50;;
56307;SDS011;42217;50.422;7.210;2022-11-15T05:28:35;1.55;;;1.45;;
56307;SDS011;42217;50.422;7.210;2022-11-15T05:31:02;2.70;;;1.70;;
56307;SDS011;42217;50.422;7.210;2022-11-15T05:33:29;1.30;;;1.20;;
56307;SDS011;42217;50.422;7.210;2022-11-15T05:35:57;3.53;;;1.90;;
56307;SDS011;42217;50.422;7.210;2022-11-15T05:38:29;1.70;;;1.60;;
56307;SDS011;42217;50.422;7.210;2022-11-15T05:40:55;1.80;;;1.70;;
56307;SDS011;42217;50.422;7.210;2022-11-15T05:43:21;2.83;;;1.83;;
56307;SDS011;42217;50.422;7.210;2022-11-15T05:45:47;2.33;;;1.73;;
56307;SDS011;42217;50.422;7.210;2022-11-15T05:48:13;4.47;;;1.60;;
56307;SDS011;42217;50.422;7.210;2022-11-15T05:50:41;1.70;;;1.60;;
56307;SDS011;42217;50.422;7.210;2022-11-15T05:53:10;2.67;;;2.03;;
56307;SDS011;42217;50.422;7.210;2022-11-15T05:55:38;2.77;;;2.27;;
56307;SDS011;42217;50.422;7.210;2022-11-15T05:58:04;2.23;;;1.40;;
56307;SDS011;42217;50.422;7.210;2022-11-15T06:00:30;1.27;;;1.00;;
56307;SDS011;42217;50.422;7.210;2022-11-15T06:02:56;4.60;;;1.43;;
56307;SDS011;42217;50.422;7.210;2022-11-15T06:05:22;1.50;;;1.37;;
56307;SDS011;42217;50.422;7.210;2022-11-15T06:07:47;1.20;;;1.10;;
56307;SDS011;42217;50.422;7.210;2022-11-15T06:10:13;1.40;;;1.30;;
56307;SDS011;42217;50.422;7.210;2022-11-15T06:12:39;1.73;;;1.63;;
56307;SDS011;42217;50.422;7.210;2022-11-15T06:15:04;2.17;;;1.63;;
56307;SDS011;42217;50.422;7.210;2022-11-15T06:17:30;2.07;;;1.90;;
56307;SDS011;42217;50.422;7.210;2022-11-15T06:19:56;1.17;;;1.07;;
56307;SDS011;42217;50.422;7.210;2022-11-15T06:22:22;2.00;;;1.60;;
56307;SDS011;42217;50.422;7.210;2022-11-15T06:24:47;1.47;;;1.37;;
56307;SDS011;42217;50.422;7.210;2022-11-15T06:27:13;1.83;;;1.40;;
56307;SDS011;42217;50.422;7.210;2022-11-15T06:29:39;3.03;;;1.23;;
56307;SDS011;42217;50.422;7.210;2022-11-15T06:32:05;1.73;;;1.60;;
56307;SDS011;42217;50.422;7.210;2022-11-15T06:34:31;1.17;;;1.07;;
56307;SDS011;42217;50.422;7.210;2022-11-15T06:36:57;1.47;;;1.37;;
56307;SDS011;42217;50.422;7.210;2022-11-15T06:39:22;1.53;;;1.30;;
56307;SDS011;42217;50.422;7.210;2022-11-15T06:41:48;1.43;;;1.17;;
56307;SDS011;42217;50.422;7.210;2022-11-15T06:44:14;2.37;;;2.17;;
56307;SDS011;42217;50.422;7.210;2022-11-15T06:46:39;1.40;;;1.30;;
56307;SDS011;42217;50.422;7.210;2022-11-15T06:49:05;2.87;;;1.90;;
56307;SDS011;42217;50.422;7.210;2022-11-15T06:51:31;2.43;;;1.63;;
56307;SDS011;42217;50.422;7.210;2022-11-15T06:53:56;1.90;;;1.80;;
56307;SDS011;42217;50.422;7.210;2022-11-15T06:56:22;3.73;;;1.57;;
56307;SDS011;42217;50.422;7.210;2022-11-15T06:58:48;1.57;;;1.20;;
56307;SDS011;42217;50.422;7.210;2022-11-15T07:01:13;1.83;;;1.73;;
56307;SDS011;42217;50.422;7.210;2022-11-15T07:03:40;1.30;;;1.20;;
56307;SDS011;42217;50.422;7.210;2022-11-15T07:06:07;1.77;;;1.67;;
56307;SDS011;42217;50.422;7.210;2022-11-15T07:08:34;1.43;;;1.33;;
56307;SDS011;42217;50.422;7.210;2022-11-15T07:11:00;3.93;;;1.70;;
56307;SDS011;42217;50.422;7.210;2022-11-15T07:13:28;1.87;;;1.67;;
56307;SDS011;42217;50.422;7.210;2022-11-15T07:15:57;1.63;;;1.53;;
56307;SDS011;42217;50.422;7.210;2022-11-15T07:18:26;3.17;;;1.80;;
56307;SDS011;42217;50.422;7.210;2022-11-15T07:20:52;2.47;;;2.00;;
56307;SDS011;42217;50.422;7.210;2022-11-15T07:23:18;3.03;;;2.10;;
56307;SDS011;42217;50.422;7.210;2022-11-15T07:25:43;3.50;;;2.57;;
56307;SDS011;42217;50.422;7.210;2022-11-15T07:28:09;3.00;;;1.87;;
56307;SDS011;42217;50.422;7.210;2022-11-15T07:30:35;2.20;;;1.57;;
56307;SDS011;42217;50.422;7.210;2022-11-15T07:33:01;1.73;;;1.30;;
56307;SDS011;42217;50.422;7.210;2022-11-15T07:35:27;2.73;;;2.23;;
56307;SDS011;42217;50.422;7.210;2022-11-15T07:37:54;1.93;;;1.60;;
56307;SDS011;42217;50.422;7.210;2022-11-15T07:40:21;3.33;;;1.47;;
56307;SDS011;42217;50.422;7.210;2022-11-15T07:42:47;1.50;;;1.40;;
56307;SDS011;42217;50.422;7.210;2022-11-15T07:45:22;1.83;;;1.63;;
56307;SDS011;42217;50.422;7.210;2022-11-15T07:47:50;1.70;;;1.60;;
56307;SDS011;42217;50.422;7.210;2022-11-15T07:50:17;3.83;;;1.97;;
56307;SDS011;42217;50.422;7.210;2022-11-15T07:52:43;1.50;;;1.40;;
56307;SDS011;42217;50.422;7.210;2022-11-15T07:55:08;2.63;;;2.23;;
56307;SDS011;42217;50.422;7.210;2022-11-15T07:57:34;1.98;;;1.70;;
56307;SDS011;42217;50.422;7.210;2022-11-15T08:00:00;1.83;;;1.60;;
56307;SDS011;42217;50.422;7.210;2022-11-15T08:02:26;17.10;;;6.80;;
56307;SDS011;42217;50.422;7.210;2022-11-15T08:04:52;6.93;;;2.83;;
56307;SDS011;42217;50.422;7.210;2022-11-15T08:07:17;1.70;;;1.48;;
56307;SDS011;42217;50.422;7.210;2022-11-15T08:09:43;2.70;;;1.50;;
56307;SDS011;42217;50.422;7.210;2022-11-15T08:12:09;1.27;;;1.17;;
56307;SDS011;42217;50.422;7.210;2022-11-15T08:14:35;2.70;;;1.88;;
56307;SDS011;42217;50.422;7.210;2022-11-15T08:17:00;5.38;;;2.10;;
56307;SDS011;42217;50.422;7.210;2022-11-15T08:19:26;2.30;;;2.10;;
56307;SDS011;42217;50.422;7.210;2022-11-15T08:21:53;1.65;;;1.40;;
56307;SDS011;42217;50.422;7.210;2022-11-15T08:24:19;1.88;;;1.05;;
56307;SDS011;42217;50.422;7.210;2022-11-15T08:26:45;1.15;;;1.15;;
56307;SDS011;42217;50.422;7.210;2022-11-15T08:29:11;1.27;;;1.00;;
56307;SDS011;42217;50.422;7.210;2022-11-15T08:31:36;1.83;;;1.13;;
56307;SDS011;42217;50.422;7.210;2022-11-15T08:34:03;0.75;;;0.65;;
56307;SDS011;42217;50.422;7.210;2022-11-15T08:36:30;1.23;;;0.98;;
56307;SDS011;42217;50.422;7.210;2022-11-15T08:38:55;1.10;;;1.00;;
56307;SDS011;42217;50.422;7.210;2022-11-15T08:41:25;0.80;;;0.70;;
56307;SDS011;42217;50.422;7.210;2022-11-15T08:43:55;1.38;;;1.08;;
56307;SDS011;42217;50.422;7.210;2022-11-15T08:46:20;1.33;;;1.23;;
56307;SDS011;42217;50.422;7.210;2022-11-15T08:48:46;1.77;;;1.25;;
56307;SDS011;42217;50.422;7.210;2022-11-15T08:51:12;0.85;;;0.73;;
56307;SDS011;42217;50.422;7.210;2022-11-15T08:53:38;3.10;;;1.43;;
56307;SDS011;42217;50.422;7.210;2022-11-15T08:56:06;1.47;;;0.93;;
56307;SDS011;42217;50.422;7.210;2022-11-15T08:58:36;1.27;;;1.13;;
56307;SDS011;42217;50.422;7.210;2022-11-15T09:01:02;0.50;;;0.50;;
56307;SDS011;42217;50.422;7.210;2022-11-15T09:03:29;1.08;;;0.88;;
56307;SDS011;42217;50.422;7.210;2022-11-15T09:05:55;1.10;;;0.90;;
56307;SDS011;42217;50.422;7.210;2022-11-15T09:08:22;0.67;;;0.67;;
56307;SDS011;42217;50.422;7.210;2022-11-15T09:10:49;0.70;;;0.70;;
56307;SDS011;42217;50.422;7.210;2022-11-15T09:13:14;2.23;;;1.43;;
56307;SDS011;42217;50.422;7.210;2022-11-15T09:15:40;1.33;;;0.98;;
56307;SDS011;42217;50.422;7.210;2022-11-15T09:18:05;0.88;;;0.88;;
56307;SDS011;42217;50.422;7.210;2022-11-15T09:20:31;3.72;;;1.13;;
56307;SDS011;42217;50.422;7.210;2022-11-15T09:23:00;2.45;;;1.17;;
56307;SDS011;42217;50.422;7.210;2022-11-15T09:25:27;2.40;;;0.93;;
56307;SDS011;42217;50.422;7.210;2022-11-15T09:27:53;2.70;;;1.10;;
56307;SDS011;42217;50.422;7.210;2022-11-15T09:30:19;2.45;;;2.25;;
56307;SDS011;42217;50.422;7.210;2022-11-15T09:32:44;1.37;;;0.63;;
56307;SDS011;42217;50.422;7.210;2022-11-15T09:35:10;0.77;;;0.77;;
56307;SDS011;42217;50.422;7.210;2022-11-15T09:37:36;0.80;;;0.80;;
56307;SDS011;42217;50.422;7.210;2022-11-15T09:40:02;1.00;;;0.80;;
56307;SDS011;42217;50.422;7.210;2022-11-15T09:42:38;2.10;;;0.57;;
56307;SDS011;42217;50.422;7.210;2022-11-15T09:45:31;0.60;;;0.60;;
56307;SDS011;42217;50.422;7.210;2022-11-15T09:48:20;3.20;;;0.80;;
56307;SDS011;42217;50.422;7.210;2022-11-15T09:51:08;1.50;;;0.85;;
56307;SDS011;42217;50.422;7.210;2022-11-15T09:53:42;4.50;;;1.00;;
56307;SDS011;42217;50.422;7.210;2022-11-15T09:56:23;0.73;;;0.73;;
56307;SDS011;42217;50.422;7.210;2022-11-15T10:01:44;1.80;;;1.20;;
56307;SDS011;42217;50.422;7.210;2022-11-15T10:04:16;2.93;;;0.80;;
56307;SDS011;42217;50.422;7.210;2022-11-15T10:06:44;4.30;;;1.00;;
56307;SDS011;42217;50.422;7.210;2022-11-15T10:09:22;2.00;;;1.00;;
56307;SDS011;42217;50.422;7.210;2022-11-15T10:11:55;1.80;;;1.23;;
56307;SDS011;42217;50.422;7.210;2022-11-15T10:14:22;0.70;;;0.70;;
56307;SDS011;42217;50.422;7.210;2022-11-15T10:22:54;2.70;;;0.93;;
56307;SDS011;42217;50.422;7.210;2022-11-15T10:25:26;1.10;;;0.80;;
56307;SDS011;42217;50.422;7.210;2022-11-15T10:30:54;0.60;;;0.60;;
56307;SDS011;42217;50.422;7.210;2022-11-15T10:41:15;0.60;;;0.60;;
56307;SDS011;42217;50.422;7.210;2022-11-15T10:44:10;2.20;;;0.70;;
56307;SDS011;42217;50.422;7.210;2022-11-15T10:46:33;2.20;;;0.73;;
56307;SDS011;42217;50.422;7.210;2022-11-15T10:49:12;2.00;;;0.88;;
56307;SDS011;42217;50.422;7.210;2022-11-15T10:51:45;2.33;;;1.23;;
56307;SDS011;42217;50.422;7.210;2022-11-15T10:54:16;0.93;;;0.93;;
56307;SDS011;42217;50.422;7.210;2022-11-15T10:56:54;1.90;;;1.00;;
56307;SDS011;42217;50.422;7.210;2022-11-15T10:59:29;2.27;;;1.73;;
56307;SDS011;42217;50.422;7.210;2022-11-15T11:01:58;4.18;;;1.15;;
56307;SDS011;42217;50.422;7.210;2022-11-15T11:04:25;1.58;;;1.05;;
56307;SDS011;42217;50.422;7.210;2022-11-15T11:06:52;2.17;;;1.17;;
56307;SDS011;42217;50.422;7.210;2022-11-15T11:11:51;3.20;;;1.45;;
56307;SDS011;42217;50.422;7.210;2022-11-15T11:14:20;2.25;;;1.23;;
56307;SDS011;42217;50.422;7.210;2022-11-15T11:23:19;1.98;;;1.30;;
56307;SDS011;42217;50.422;7.210;2022-11-15T11:32:01;2.17;;;1.98;;
56307;SDS011;42217;50.422;7.210;2022-11-15T11:37:28;2.20;;;2.00;;
56307;SDS011;42217;50.422;7.210;2022-11-15T11:43:06;3.17;;;2.28;;
56307;SDS011;42217;50.422;7.210;2022-11-15T11:51:31;2.17;;;1.70;;
56307;SDS011;42217;50.422;7.210;2022-11-15T11:57:01;3.33;;;2.40;;
56307;SDS011;42217;50.422;7.210;2022-11-15T11:59:54;2.53;;;2.33;;
56307;SDS011;42217;50.422;7.210;2022-11-15T12:02:21;4.13;;;2.60;;
56307;SDS011;42217;50.422;7.210;2022-11-15T12:04:58;2.33;;;1.90;;
56307;SDS011;42217;50.422;7.210;2022-11-15T12:07:33;2.30;;;2.10;;
56307;SDS011;42217;50.422;7.210;2022-11-15T12:13:02;1.90;;;1.58;;
56307;SDS011;42217;50.422;7.210;2022-11-15T12:15:58;2.00;;;1.83;;
56307;SDS011;42217;50.422;7.210;2022-11-15T12:18:29;3.83;;;1.77;;
56307;SDS011;42217;50.422;7.210;2022-11-15T12:20:59;3.40;;;1.90;;
56307;SDS011;42217;50.422;7.210;2022-11-15T12:23:32;2.75;;;2.22;;
56307;SDS011;42217;50.422;7.210;2022-11-15T12:26:08;2.42;;;1.95;;
56307;SDS011;42217;50.422;7.210;2022-11-15T12:31:24;2.60;;;2.40;;
56307;SDS011;42217;50.422;7.210;2022-11-15T12:33:55;4.70;;;1.80;;
56307;SDS011;42217;50.422;7.210;2022-11-15T12:38:54;2.72;;;2.08;;
56307;SDS011;42217;50.422;7.210;2022-11-15T12:41:23;1.92;;;1.45;;
56307;SDS011;42217;50.422;7.210;2022-11-15T12:43:56;2.92;;;1.80;;
56307;SDS011;42217;50.422;7.210;2022-11-15T12:48:56;2.07;;;1.90;;
56307;SDS011;42217;50.422;7.210;2022-11-15T13:02:35;1.77;;;1.50;;
56307;SDS011;42217;50.422;7.210;2022-11-15T13:17:54;2.05;;;1.50;;
56307;SDS011;42217;50.422;7.210;2022-11-15T13:23:09;1.75;;;1.38;;
56307;SDS011;42217;50.422;7.210;2022-11-15T13:30:35;1.30;;;0.85;;
56307;SDS011;42217;50.422;7.210;2022-11-15T13:33:08;1.73;;;0.93;;
56307;SDS011;42217;50.422;7.210;2022-11-15T13:35:40;1.23;;;0.77;;
56307;SDS011;42217;50.422;7.210;2022-11-15T13:38:11;1.10;;;1.00;;
56307;SDS011;42217;50.422;7.210;2022-11-15T13:40:54;0.70;;;0.70;;
56307;SDS011;42217;50.422;7.210;2022-11-15T13:48:52;3.65;;;0.98;;
56307;SDS011;42217;50.422;7.210;2022-11-15T13:56:44;1.40;;;1.30;;
56307;SDS011;42217;50.422;7.210;2022-11-15T13:59:33;3.60;;;1.08;;
56307;SDS011;42217;50.422;7.210;2022-11-15T14:02:03;1.92;;;1.60;;
56307;SDS011;42217;50.422;7.210;2022-11-15T14:04:45;3.15;;;1.70;;
56307;SDS011;42217;50.422;7.210;2022-11-15T14:07:20;1.85;;;1.70;;
56307;SDS011;42217;50.422;7.210;2022-11-15T14:09:48;1.17;;;1.08;;
56307;SDS011;42217;50.422;7.210;2022-11-15T14:12:31;2.53;;;1.38;;
56307;SDS011;42217;50.422;7.210;2022-11-15T14:14:59;1.85;;;1.15;;
56307;SDS011;42217;50.422;7.210;2022-11-15T14:19:56;3.17;;;0.98;;
56307;SDS011;42217;50.422;7.210;2022-11-15T14:22:23;1.95;;;1.38;;
56307;SDS011;42217;50.422;7.210;2022-11-15T14:27:44;4.13;;;1.00;;
56307;SDS011;42217;50.422;7.210;2022-11-15T14:30:49;0.88;;;0.80;;
56307;SDS011;42217;50.422;7.210;2022-11-15T14:35:44;1.65;;;1.00;;
56307;SDS011;42217;50.422;7.210;2022-11-15T14:38:10;1.55;;;0.93;;
56307;SDS011;42217;50.422;7.210;2022-11-15T14:40:35;4.20;;;2.70;;
56307;SDS011;42217;50.422;7.210;2022-11-15T14:43:08;4.10;;;2.57;;
56307;SDS011;42217;50.422;7.210;2022-11-15T14:45:37;3.53;;;1.23;;
56307;SDS011;42217;50.422;7.210;2022-11-15T14:48:04;1.85;;;1.00;;
56307;SDS011;42217;50.422;7.210;2022-11-15T14:50:30;2.05;;;1.13;;
56307;SDS011;42217;50.422;7.210;2022-11-15T14:52:57;2.50;;;2.08;;
56307;SDS011;42217;50.422;7.210;2022-11-15T14:55:25;4.15;;;3.67;;
56307;SDS011;42217;50.422;7.210;2022-11-15T14:57:56;3.13;;;2.30;;
56307;SDS011;42217;50.422;7.210;2022-11-15T15:00:28;4.35;;;2.58;;
56307;SDS011;42217;50.422;7.210;2022-11-15T15:02:57;5.82;;;2.67;;
56307;SDS011;42217;50.422;7.210;2022-11-15T15:07:54;2.80;;;1.73;;
56307;SDS011;42217;50.422;7.210;2022-11-15T15:10:20;4.35;;;1.70;;
56307;SDS011;42217;50.422;7.210;2022-11-15T15:12:47;4.60;;;2.20;;
56307;SDS011;42217;50.422;7.210;2022-11-15T15:15:17;3.28;;;2.55;;
56307;SDS011;42217;50.422;7.210;2022-11-15T15:17:46;2.67;;;1.80;;
56307;SDS011;42217;50.422;7.210;2022-11-15T15:20:12;9.95;;;2.30;;
56307;SDS011;42217;50.422;7.210;2022-11-15T15:22:38;1.75;;;1.25;;
56307;SDS011;42217;50.422;7.210;2022-11-15T15:25:23;3.35;;;1.20;;
56307;SDS011;42217;50.422;7.210;2022-11-15T15:27:53;1.90;;;1.23;;
56307;SDS011;42217;50.422;7.210;2022-11-15T15:30:19;1.13;;;0.85;;
56307;SDS011;42217;50.422;7.210;2022-11-15T15:32:46;1.25;;;1.15;;
56307;SDS011;42217;50.422;7.210;2022-11-15T15:35:15;1.83;;;1.50;;
56307;SDS011;42217;50.422;7.210;2022-11-15T15:37:41;4.90;;;1.45;;
56307;SDS011;42217;50.422;7.210;2022-11-15T15:40:19;1.48;;;1.13;;
56307;SDS011;42217;50.422;7.210;2022-11-15T15:42:47;2.00;;;0.90;;
56307;SDS011;42217;50.422;7.210;2022-11-15T15:45:13;3.03;;;1.42;;
56307;SDS011;42217;50.422;7.210;2022-11-15T15:47:40;0.80;;;0.68;;
56307;SDS011;42217;50.422;7.210;2022-11-15T15:50:23;3.30;;;1.15;;
56307;SDS011;42217;50.422;7.210;2022-11-15T15:52:51;1.70;;;1.25;;
56307;SDS011;42217;50.422;7.210;2022-11-15T15:55:17;1.75;;;1.17;;
56307;SDS011;42217;50.422;7.210;2022-11-15T15:57:43;2.05;;;1.50;;
56307;SDS011;42217;50.422;7.210;2022-11-15T16:00:09;2.60;;;1.10;;
56307;SDS011;42217;50.422;7.210;2022-11-15T16:02:35;2.53;;;1.25;;
56307;SDS011;42217;50.422;7.210;2022-11-15T16:05:01;2.80;;;1.42;;
56307;SDS011;42217;50.422;7.210;2022-11-15T16:07:27;1.17;;;0.80;;
56307;SDS011;42217;50.422;7.210;2022-11-15T16:09:54;2.42;;;1.10;;
56307;SDS011;42217;50.422;7.210;2022-11-15T16:12:27;2.78;;;1.20;;
56307;SDS011;42217;50.422;7.210;2022-11-15T16:14:53;3.05;;;1.42;;
56307;SDS011;42217;50.422;7.210;2022-11-15T16:17:20;3.58;;;1.67;;
56307;SDS011;42217;50.422;7.210;2022-11-15T16:19:48;2.25;;;1.70;;
56307;SDS011;42217;50.422;7.210;2022-11-15T16:22:14;4.22;;;2.10;;
56307;SDS011;42217;50.422;7.210;2022-11-15T16:24:40;3.67;;;2.33;;
56307;SDS011;42217;50.422;7.210;2022-11-15T16:27:09;2.63;;;2.25;;
56307;SDS011;42217;50.422;7.210;2022-11-15T16:29:39;3.08;;;2.33;;
56307;SDS011;42217;50.422;7.210;2022-11-15T16:32:05;3.42;;;1.60;;
56307;SDS011;42217;50.422;7.210;2022-11-15T16:34:31;2.60;;;2.30;;
56307;SDS011;42217;50.422;7.210;2022-11-15T16:36:56;3.85;;;2.50;;
56307;SDS011;42217;50.422;7.210;2022-11-15T16:39:22;5.10;;;2.08;;
56307;SDS011;42217;50.422;7.210;2022-11-15T16:41:48;2.78;;;2.35;;
56307;SDS011;42217;50.422;7.210;2022-11-15T16:44:13;3.85;;;2.50;;
56307;SDS011;42217;50.422;7.210;2022-11-15T16:46:42;3.15;;;2.20;;
56307;SDS011;42217;50.422;7.210;2022-11-15T16:49:14;6.38;;;3.88;;
56307;SDS011;42217;50.422;7.210;2022-11-15T16:51:40;4.50;;;3.35;;
56307;SDS011;42217;50.422;7.210;2022-11-15T16:54:06;3.50;;;2.67;;
56307;SDS011;42217;50.422;7.210;2022-11-15T16:56:33;5.88;;;3.83;;
56307;SDS011;42217;50.422;7.210;2022-11-15T16:58:59;5.97;;;2.42;;
56307;SDS011;42217;50.422;7.210;2022-11-15T17:03:52;3.63;;;2.78;;
56307;SDS011;42217;50.422;7.210;2022-11-15T17:06:19;5.38;;;3.15;;
56307;SDS011;42217;50.422;7.210;2022-11-15T17:08:46;6.10;;;4.57;;
56307;SDS011;42217;50.422;7.210;2022-11-15T17:11:16;5.68;;;3.55;;
56307;SDS011;42217;50.422;7.210;2022-11-15T17:13:43;7.72;;;3.88;;
56307;SDS011;42217;50.422;7.210;2022-11-15T17:16:13;7.90;;;4.67;;
56307;SDS011;42217;50.422;7.210;2022-11-15T17:18:40;4.90;;;3.37;;
56307;SDS011;42217;50.422;7.210;2022-11-15T17:21:13;5.13;;;3.83;;
56307;SDS011;42217;50.422;7.210;2022-11-15T17:23:41;4.53;;;3.90;;
56307;SDS011;42217;50.422;7.210;2022-11-15T17:26:07;5.43;;;3.60;;
56307;SDS011;42217;50.422;7.210;2022-11-15T17:28:35;7.43;;;4.03;;
56307;SDS011;42217;50.422;7.210;2022-11-15T17:31:04;5.57;;;4.47;;